Time;durP1;ratioP1;P1;durP2;ratioP2;P2;SDS_P1;SDS_P2;PMS_P1;PMS_P2;Temp;Humidity;BMP_temperature;BMP_pressure;BME280_temperature;BME280_humidity;BME280_pressure;Samples;Min_cycle;Max_cycle;Signal;HPM_P1;HPM_P2
2024/04/18 00:02:48;;;;;;;1.43;1.10;;;8.40;71.70;;;;;;6790189;26;20469;-60
2024/04/18 00:05:52;;;;;;;1.20;1.10;;;8.30;73.50;;;;;;6794215;26;20473;-60
2024/04/18 00:09:07;;;;;;;1.90;1.30;;;8.20;74.40;;;;;;6799507;26;20575;-59
2024/04/18 00:12:12;;;;;;;1.50;1.40;;;8.10;75.90;;;;;;6753408;26;20508;-60
2024/04/18 00:15:33;;;;;;;1.37;1.10;;;8.10;77.30;;;;;;6754466;26;20474;-59
2024/04/18 00:18:50;;;;;;;1.90;1.77;;;8.00;78.10;;;;;;6772032;26;20488;-60
2024/04/18 00:22:02;;;;;;;1.47;1.37;;;8.00;79.90;;;;;;6798658;26;20631;-60
2024/04/18 00:25:06;;;;;;;1.63;1.53;;;7.90;81.40;;;;;;6799599;26;20496;-60
2024/04/18 00:28:24;;;;;;;1.57;1.47;;;7.90;83.00;;;;;;6799757;26;20654;-60
2024/04/18 00:31:31;;;;;;;1.60;1.50;;;7.90;84.40;;;;;;6800154;26;20997;-60
2024/04/18 00:34:44;;;;;;;2.73;1.70;;;7.90;85.80;;;;;;6799520;26;20483;-60
2024/04/18 00:37:57;;;;;;;2.07;1.33;;;8.00;86.90;;;;;;6794570;26;20521;-60
2024/04/18 00:41:01;;;;;;;1.13;1.13;;;8.00;88.40;;;;;;6800646;26;20532;-60
2024/04/18 00:44:14;;;;;;;1.97;1.60;;;8.10;89.10;;;;;;6764988;26;20469;-60
2024/04/18 00:47:19;;;;;;;1.57;1.47;;;8.10;89.10;;;;;;6799475;26;20524;-60
2024/04/18 00:50:33;;;;;;;1.90;1.80;;;8.10;89.20;;;;;;6798425;26;20468;-60
2024/04/18 00:53:40;;;;;;;1.20;1.20;;;8.10;89.70;;;;;;6797441;26;20552;-61
2024/04/18 00:56:45;;;;;;;2.03;1.90;;;8.10;89.70;;;;;;6799331;26;20535;-60
2024/04/18 01:00:05;;;;;;;2.10;1.90;;;8.00;89.70;;;;;;6799797;26;20540;-60
2024/04/18 01:03:19;;;;;;;2.07;1.87;;;7.90;90.20;;;;;;6797461;26;20468;-60
2024/04/18 01:06:28;;;;;;;2.00;1.80;;;7.80;90.50;;;;;;6799085;26;20477;-60
2024/04/18 01:09:35;;;;;;;1.77;1.67;;;7.70;90.80;;;;;;6798662;26;20761;-60
2024/04/18 01:12:43;;;;;;;1.80;1.70;;;7.60;91.10;;;;;;6792812;25;20511;-61
2024/04/18 01:15:49;;;;;;;2.10;1.80;;;7.50;91.40;;;;;;6798774;25;20549;-61
2024/04/18 01:19:03;;;;;;;2.30;1.50;;;7.30;91.80;;;;;;6798551;26;20508;-60
2024/04/18 01:22:17;;;;;;;1.73;1.63;;;7.30;92.20;;;;;;6798208;26;20469;-60
2024/04/18 01:25:21;;;;;;;2.33;1.70;;;7.10;92.50;;;;;;6798408;26;20886;-61
2024/04/18 01:28:43;;;;;;;1.70;1.60;;;7.00;93.20;;;;;;6796392;26;20978;-60
2024/04/18 01:31:46;;;;;;;1.50;1.40;;;6.90;94.20;;;;;;6798276;26;20465;-60
2024/04/18 01:34:56;;;;;;;1.63;1.53;;;6.80;95.70;;;;;;6797712;26;20551;-60
2024/04/18 01:38:11;;;;;;;1.83;1.70;;;6.70;96.30;;;;;;6797940;26;20539;-60
2024/04/18 01:41:20;;;;;;;1.67;1.57;;;6.60;96.50;;;;;;6796704;25;20682;-60
2024/04/18 01:44:46;;;;;;;1.70;1.60;;;6.50;96.80;;;;;;6797849;26;20520;-60
2024/04/18 01:47:55;;;;;;;2.53;2.00;;;6.40;97.30;;;;;;6797473;26;20452;-60
2024/04/18 01:51:05;;;;;;;2.40;2.20;;;6.30;97.80;;;;;;6798239;26;20460;-60
2024/04/18 01:54:18;;;;;;;3.50;1.90;;;6.20;98.40;;;;;;6797319;26;20464;-60
2024/04/18 01:57:21;;;;;;;2.23;1.70;;;6.20;98.90;;;;;;6797654;26;21223;-60
2024/04/18 02:00:47;;;;;;;2.33;2.10;;;6.10;99.40;;;;;;6797107;26;20460;-60
2024/04/18 02:03:53;;;;;;;2.10;1.97;;;6.00;99.80;;;;;;6798665;26;20969;-60
2024/04/18 02:07:00;;;;;;;1.63;1.53;;;5.90;99.90;;;;;;6801086;25;20526;-59
2024/04/18 02:10:10;;;;;;;1.73;1.63;;;5.90;99.90;;;;;;6801069;25;20464;-60
2024/04/18 02:13:14;;;;;;;2.40;2.07;;;5.90;99.90;;;;;;6801268;26;20773;-59
2024/04/18 02:16:36;;;;;;;2.90;2.70;;;5.80;99.90;;;;;;6802244;26;20472;-60
2024/04/18 02:19:40;;;;;;;2.40;2.17;;;5.90;99.90;;;;;;6802915;25;20516;-60
2024/04/18 02:22:47;;;;;;;2.20;2.10;;;5.90;99.90;;;;;;6802037;26;20452;-60
2024/04/18 02:25:50;;;;;;;1.90;1.80;;;5.90;99.90;;;;;;6790686;26;20824;-60
2024/04/18 02:28:55;;;;;;;3.10;1.90;;;6.00;99.90;;;;;;6800734;26;20460;-60
2024/04/18 02:32:00;;;;;;;2.10;1.90;;;6.00;99.90;;;;;;6801662;26;20460;-60
2024/04/18 02:35:05;;;;;;;1.83;1.73;;;6.00;99.90;;;;;;6801329;25;20520;-59
2024/04/18 02:38:08;;;;;;;1.90;1.80;;;6.00;99.90;;;;;;6801335;26;20543;-60
2024/04/18 02:41:13;;;;;;;2.10;2.00;;;5.90;99.90;;;;;;6800917;26;20524;-60
2024/04/18 02:44:18;;;;;;;1.80;1.70;;;6.00;99.90;;;;;;6800550;26;20444;-60
2024/04/18 02:47:30;;;;;;;4.70;1.83;;;6.00;99.90;;;;;;6801529;25;20460;-60
2024/04/18 02:50:39;;;;;;;1.87;1.77;;;6.10;99.90;;;;;;6800808;26;20507;-60
2024/04/18 02:53:49;;;;;;;1.80;1.70;;;6.20;99.90;;;;;;6801083;26;20520;-60
2024/04/18 02:56:51;;;;;;;2.03;1.90;;;6.20;99.90;;;;;;6802692;26;20476;-60
2024/04/18 03:00:02;;;;;;;2.00;1.90;;;6.40;99.90;;;;;;6803946;26;20515;-59
2024/04/18 03:03:25;;;;;;;1.83;1.70;;;6.50;99.90;;;;;;6800954;25;20866;-59
2024/04/18 03:06:29;;;;;;;2.07;1.90;;;6.50;99.90;;;;;;6800840;26;21009;-60
2024/04/18 03:09:39;;;;;;;1.87;1.73;;;6.60;99.90;;;;;;6800590;26;20634;-60
2024/04/18 03:12:44;;;;;;;3.43;2.13;;;6.60;99.90;;;;;;6800261;26;20457;-60
2024/04/18 03:15:52;;;;;;;4.10;1.80;;;6.70;99.90;;;;;;6800232;26;20538;-60
2024/04/18 03:19:13;;;;;;;2.93;2.30;;;6.70;99.90;;;;;;6801334;26;20464;-61
2024/04/18 03:22:17;;;;;;;2.90;2.40;;;6.80;99.90;;;;;;6799624;26;20499;-60
2024/04/18 03:25:25;;;;;;;2.00;1.90;;;6.80;99.90;;;;;;6800680;26;21037;-59
2024/04/18 03:28:29;;;;;;;2.10;1.60;;;6.80;99.90;;;;;;6801655;26;20460;-60
2024/04/18 03:31:37;;;;;;;2.37;2.10;;;6.80;99.90;;;;;;6801141;26;20655;-60
2024/04/18 03:34:57;;;;;;;1.97;1.80;;;6.70;99.90;;;;;;6801948;25;20524;-60
2024/04/18 03:38:11;;;;;;;2.00;1.90;;;6.60;99.90;;;;;;6801175;26;20897;-60
2024/04/18 03:41:25;;;;;;;1.90;1.80;;;6.60;99.90;;;;;;6841882;26;20557;-60
2024/04/18 03:44:35;;;;;;;2.13;1.97;;;6.50;99.90;;;;;;6846827;26;20467;-60
2024/04/18 03:47:50;;;;;;;2.00;1.90;;;6.40;99.90;;;;;;6850034;26;20555;-59
2024/04/18 03:51:16;;;;;;;5.13;2.57;;;6.30;99.90;;;;;;6850454;26;20837;-60
2024/04/18 03:54:21;;;;;;;2.50;2.30;;;6.20;99.90;;;;;;6834790;26;20469;-60
2024/04/18 03:57:32;;;;;;;2.23;2.13;;;6.20;99.90;;;;;;6820196;26;20576;-60
2024/04/18 04:00:40;;;;;;;2.80;2.60;;;6.20;99.90;;;;;;6846688;26;20455;-60
2024/04/18 04:03:46;;;;;;;2.53;2.33;;;6.20;99.90;;;;;;6806691;26;20461;-60
2024/04/18 04:07:12;;;;;;;2.90;2.57;;;6.30;99.90;;;;;;6799276;26;20476;-60
2024/04/18 04:10:18;;;;;;;2.33;2.23;;;6.40;99.90;;;;;;6800052;25;20457;-60
2024/04/18 04:13:28;;;;;;;2.37;2.27;;;6.50;99.90;;;;;;6799024;26;20468;-61
2024/04/18 04:16:32;;;;;;;2.70;2.50;;;6.60;99.90;;;;;;6799711;26;20532;-60
2024/04/18 04:19:48;;;;;;;2.67;2.47;;;6.70;99.90;;;;;;6800099;26;20548;-59
2024/04/18 04:23:10;;;;;;;2.60;2.40;;;6.80;99.90;;;;;;6799542;26;20453;-60
2024/04/18 04:26:24;;;;;;;2.70;2.50;;;7.10;99.90;;;;;;6798415;26;21181;-61
2024/04/18 04:29:38;;;;;;;2.83;2.60;;;7.20;99.90;;;;;;6799058;26;20464;-60
2024/04/18 04:32:43;;;;;;;2.83;2.57;;;7.30;99.90;;;;;;6798827;26;20718;-60
2024/04/18 04:35:52;;;;;;;2.57;2.37;;;7.50;99.90;;;;;;6799336;25;20464;-60
2024/04/18 04:39:04;;;;;;;2.53;2.23;;;7.70;99.90;;;;;;6798777;25;21130;-61
2024/04/18 04:42:10;;;;;;;2.90;2.70;;;7.90;98.80;;;;;;6799030;26;20603;-59
2024/04/18 04:45:17;;;;;;;2.57;2.37;;;8.60;98.90;;;;;;6795522;25;20609;-61
2024/04/18 04:48:25;;;;;;;3.13;2.43;;;10.00;97.40;;;;;;6799133;26;20767;-60
2024/04/18 04:51:32;;;;;;;7.23;2.70;;;11.50;92.40;;;;;;6779666;25;20539;-60
2024/04/18 04:54:52;;;;;;;2.83;2.43;;;11.80;89.00;;;;;;6800485;26;20666;-61
2024/04/18 04:58:05;;;;;;;5.57;2.80;;;12.30;85.40;;;;;;6798808;26;21120;-60
2024/04/18 05:01:20;;;;;;;2.93;2.73;;;12.30;82.20;;;;;;6798607;26;20550;-59
2024/04/18 05:04:26;;;;;;;2.37;2.17;;;12.10;80.60;;;;;;6798528;26;20477;-60
2024/04/18 05:07:36;;;;;;;4.30;2.73;;;11.90;79.10;;;;;;6798598;26;20509;-61
2024/04/18 05:10:51;;;;;;;2.30;2.07;;;11.70;79.70;;;;;;6798647;26;20464;-61
2024/04/18 05:13:55;;;;;;;2.23;1.77;;;11.70;80.40;;;;;;6797567;26;20476;-60
2024/04/18 05:17:12;;;;;;;3.60;2.47;;;11.70;80.00;;;;;;6799306;26;20545;-60
2024/04/18 05:20:16;;;;;;;3.03;2.43;;;11.90;80.80;;;;;;6798653;26;20453;-59
2024/04/18 05:23:26;;;;;;;2.70;2.10;;;13.20;80.20;;;;;;6790369;26;20536;-60
2024/04/18 05:26:32;;;;;;;2.47;1.90;;;15.60;70.30;;;;;;6753059;26;20526;-60
2024/04/18 05:32:58;;;;;;;4.00;1.80;;;20.10;50.40;;;;;;6752210;26;20251;-60
2024/04/18 05:36:08;;;;;;;2.37;1.73;;;22.00;44.80;;;;;;6751907;26;20411;-61
2024/04/18 05:39:25;;;;;;;2.50;2.00;;;23.80;38.90;;;;;;6755291;26;20254;-62
2024/04/18 05:42:41;;;;;;;5.53;2.03;;;25.20;35.10;;;;;;6754963;26;20263;-61
2024/04/18 05:45:49;;;;;;;2.60;1.93;;;26.40;31.20;;;;;;6781945;26;20235;-62
2024/04/18 05:49:04;;;;;;;2.97;1.70;;;27.50;28.60;;;;;;6802089;26;20436;-61
2024/04/18 05:52:11;;;;;;;1.63;1.53;;;28.60;27.10;;;;;;6803042;26;20322;-62
2024/04/18 05:55:27;;;;;;;2.50;1.70;;;30.00;25.40;;;;;;6802426;26;20339;-61
2024/04/18 05:58:44;;;;;;;1.80;1.70;;;31.00;23.80;;;;;;6802824;25;20278;-61
2024/04/18 06:01:59;;;;;;;2.38;1.88;;;31.30;22.20;;;;;;6772208;26;20584;-62
2024/04/18 06:05:09;;;;;;;2.53;1.70;;;30.30;22.40;;;;;;6802780;26;20235;-61
2024/04/18 06:08:23;;;;;;;2.20;1.70;;;29.50;22.40;;;;;;6802935;26;20273;-60
2024/04/18 06:11:41;;;;;;;3.93;2.20;;;29.20;22.50;;;;;;6801473;26;20277;-61
2024/04/18 06:14:57;;;;;;;4.27;2.00;;;28.00;23.20;;;;;;6802275;26;20280;-61
2024/04/18 06:18:04;;;;;;;2.00;1.67;;;26.50;24.40;;;;;;6802636;26;20695;-61
2024/04/18 06:21:12;;;;;;;1.77;1.53;;;25.50;25.50;;;;;;6802222;26;20231;-61
2024/04/18 06:24:27;;;;;;;4.37;2.07;;;25.40;25.70;;;;;;6802041;26;20219;-61
2024/04/18 06:27:40;;;;;;;2.83;1.80;;;25.50;25.30;;;;;;6802007;26;20265;-61
2024/04/18 06:31:06;;;;;;;5.10;2.63;;;25.30;24.80;;;;;;6801519;26;20227;-61
2024/04/18 06:34:18;;;;;;;2.20;1.80;;;24.80;25.20;;;;;;6802285;26;20269;-61
2024/04/18 06:37:34;;;;;;;3.53;1.77;;;23.70;25.70;;;;;;6801590;26;20271;-60
2024/04/18 06:40:47;;;;;;;2.07;1.73;;;22.90;27.20;;;;;;6801257;25;20286;-60
2024/04/18 06:44:01;;;;;;;1.47;1.37;;;23.20;27.70;;;;;;6801362;26;20270;-61
2024/04/18 06:47:17;;;;;;;2.53;1.40;;;24.50;26.20;;;;;;6801016;26;20617;-62
2024/04/18 06:50:24;;;;;;;1.60;1.50;;;27.70;24.70;;;;;;6809004;26;20277;-61
2024/04/18 06:53:41;;;;;;;1.30;1.20;;;29.60;22.40;;;;;;6808254;26;20281;-62
2024/04/18 06:56:49;;;;;;;1.00;0.83;;;28.20;21.70;;;;;;6801490;25;20605;-61
2024/04/18 06:59:58;;;;;;;2.30;1.10;;;26.10;23.60;;;;;;6797076;25;20334;-61
2024/04/18 07:03:13;;;;;;;1.77;0.70;;;27.40;23.20;;;;;;6787116;25;20280;-61
2024/04/18 07:06:27;;;;;;;1.30;0.70;;;28.30;21.90;;;;;;6801719;26;20544;-62
2024/04/18 07:09:42;;;;;;;1.13;0.80;;;29.10;21.20;;;;;;6793018;26;20332;-61
2024/04/18 07:12:53;;;;;;;2.07;0.60;;;30.10;20.40;;;;;;6800108;26;20254;-61
2024/04/18 07:16:02;;;;;;;1.23;0.65;;;31.20;19.90;;;;;;6792704;26;20693;-61
2024/04/18 07:19:17;;;;;;;2.33;0.80;;;31.30;19.40;;;;;;6757755;26;20223;-62
2024/04/18 07:22:32;;;;;;;0.90;0.65;;;31.50;18.90;;;;;;6783796;25;20292;-62
2024/04/18 07:25:49;;;;;;;0.95;0.52;;;32.10;18.70;;;;;;6798902;26;20322;-62
2024/04/18 07:28:56;;;;;;;1.92;0.50;;;33.10;18.20;;;;;;6798967;26;20254;-63
2024/04/18 07:32:05;;;;;;;3.10;0.68;;;34.30;17.50;;;;;;6801057;26;20247;-62
2024/04/18 07:35:23;;;;;;;0.68;0.40;;;35.50;15.90;;;;;;6800273;26;20277;-62
2024/04/18 07:38:32;;;;;;;1.02;0.50;;;37.00;15.30;;;;;;6795187;25;20234;-60
2024/04/18 07:41:46;;;;;;;2.88;0.50;;;37.00;14.60;;;;;;6795348;26;20277;-63
2024/04/18 07:45:03;;;;;;;1.08;0.43;;;35.50;14.70;;;;;;6781625;26;20390;-62
2024/04/18 07:48:17;;;;;;;0.77;0.40;;;34.10;15.30;;;;;;6791570;25;20254;-62
2024/04/18 07:51:42;;;;;;;2.58;0.47;;;32.90;15.80;;;;;;6785360;26;20330;-61
2024/04/18 07:54:52;;;;;;;3.30;0.70;;;31.10;17.20;;;;;;6789186;26;20290;-62
2024/04/18 07:58:03;;;;;;;0.80;0.40;;;29.40;17.90;;;;;;6755899;26;20244;-62
2024/04/18 08:01:21;;;;;;;0.87;0.40;;;28.00;19.40;;;;;;6799094;25;20235;-61
2024/04/18 08:04:31;;;;;;;0.80;0.40;;;26.70;20.40;;;;;;6796581;25;20339;-61
2024/04/18 08:08:14;;;;;;;0.60;0.30;;;25.40;21.30;;;;;;6790940;26;20284;-62
2024/04/18 08:11:25;;;;;;;1.10;0.33;;;24.10;22.20;;;;;;6800131;26;21036;-62
2024/04/18 08:14:52;;;;;;;0.73;0.43;;;23.10;23.10;;;;;;6790359;26;20748;-62
2024/04/18 08:18:08;;;;;;;1.20;0.63;;;22.30;24.10;;;;;;6802809;26;20266;-60
2024/04/18 08:21:17;;;;;;;1.53;0.30;;;21.80;24.70;;;;;;6796949;25;20314;-61
2024/04/18 08:24:35;;;;;;;1.23;0.40;;;21.50;24.90;;;;;;6778159;26;20307;-59
2024/04/18 08:27:43;;;;;;;2.13;0.30;;;21.20;25.70;;;;;;6801549;25;20243;-60
2024/04/18 08:30:50;;;;;;;0.80;0.40;;;20.80;26.20;;;;;;6800662;25;20293;-60
2024/04/18 08:34:07;;;;;;;0.80;0.50;;;20.50;26.30;;;;;;6801586;25;20239;-62
2024/04/18 08:37:30;;;;;;;0.50;0.50;;;20.40;26.60;;;;;;6800528;26;20274;-62
2024/04/18 08:40:56;;;;;;;0.70;0.43;;;20.30;27.00;;;;;;6801410;26;20579;-61
2024/04/18 08:44:11;;;;;;;1.27;0.70;;;20.60;27.50;;;;;;6789261;26;20689;-61
2024/04/18 08:47:22;;;;;;;0.93;0.57;;;21.00;26.90;;;;;;6802929;26;20323;-61
2024/04/18 08:50:34;;;;;;;1.00;0.60;;;21.20;26.50;;;;;;6801722;26;20227;-62
2024/04/18 08:53:42;;;;;;;5.33;1.03;;;22.00;26.80;;;;;;6788388;26;20336;-61
2024/04/18 08:57:07;;;;;;;4.90;1.03;;;22.70;26.10;;;;;;6799320;26;20251;-62
2024/04/18 09:00:15;;;;;;;1.60;0.80;;;22.70;25.80;;;;;;6774899;26;20308;-60
2024/04/18 09:03:31;;;;;;;1.73;0.50;;;21.50;25.80;;;;;;6784810;26;20352;-60
2024/04/18 09:06:38;;;;;;;0.73;0.53;;;20.50;26.50;;;;;;6777758;26;20285;-61
2024/04/18 09:09:53;;;;;;;1.33;0.50;;;19.80;27.10;;;;;;6773190;26;20244;-60
2024/04/18 09:13:19;;;;;;;0.50;0.40;;;18.60;29.20;;;;;;6754329;26;20236;-61
2024/04/18 09:16:31;;;;;;;0.60;0.30;;;18.00;30.40;;;;;;6800418;26;20281;-58
2024/04/18 09:19:40;;;;;;;2.17;0.60;;;17.70;29.70;;;;;;6799659;25;20259;-62
2024/04/18 09:23:03;;;;;;;2.13;1.00;;;17.90;30.20;;;;;;6781606;26;20239;-60
2024/04/18 09:26:17;;;;;;;1.00;0.70;;;21.20;30.70;;;;;;6759043;26;20236;-61
2024/04/18 09:29:42;;;;;;;1.27;0.73;;;25.40;27.70;;;;;;6765945;26;20330;-60
2024/04/18 09:32:52;;;;;;;1.75;0.68;;;30.30;23.30;;;;;;6800045;26;20285;-60
2024/04/18 09:36:03;;;;;;;0.90;0.70;;;34.60;20.00;;;;;;6781088;26;20285;-62
2024/04/18 09:39:19;;;;;;;1.73;0.50;;;37.50;16.70;;;;;;6771310;26;20536;-59
2024/04/18 09:42:40;;;;;;;1.90;0.70;;;39.60;14.60;;;;;;6801119;25;20265;-60
2024/04/18 09:46:04;;;;;;;3.63;0.95;;;41.00;13.90;;;;;;6800854;26;20674;-61
2024/04/18 09:49:17;;;;;;;0.90;0.45;;;41.10;12.30;;;;;;6798607;25;20230;-61
2024/04/18 09:52:30;;;;;;;1.20;0.40;;;37.50;13.30;;;;;;6782258;26;20235;-62
2024/04/18 09:55:42;;;;;;;0.95;0.60;;;34.90;15.10;;;;;;6761605;26;20240;-61
2024/04/18 09:58:52;;;;;;;1.35;0.60;;;33.20;16.50;;;;;;6857067;25;20278;-62
2024/04/18 10:02:17;;;;;;;1.95;0.65;;;33.40;17.40;;;;;;6771604;25;20835;-63
2024/04/18 10:05:29;;;;;;;0.93;0.40;;;35.70;15.70;;;;;;6780487;25;20234;-61
2024/04/18 10:08:43;;;;;;;1.10;0.80;;;38.00;13.80;;;;;;6801355;26;20648;-63
2024/04/18 10:11:53;;;;;;;2.65;0.90;;;40.90;12.60;;;;;;6768750;26;20358;-63
2024/04/18 10:15:04;;;;;;;1.77;0.45;;;42.10;10.70;;;;;;6771757;26;20283;-64
2024/04/18 10:18:40;;;;;;;0.70;0.40;;;39.60;11.00;;;;;;6850935;25;20315;-62
2024/04/18 10:21:59;;;;;;;1.75;1.00;;;36.20;12.70;;;;;;6759197;26;20274;-64
2024/04/18 10:25:26;;;;;;;1.13;0.75;;;33.10;14.40;;;;;;6786360;26;20227;-66
2024/04/18 10:28:38;;;;;;;0.80;0.35;;;29.80;16.60;;;;;;6783977;26;20247;-63
2024/04/18 10:31:45;;;;;;;3.73;0.50;;;27.70;18.80;;;;;;6790041;26;20239;-65
2024/04/18 10:35:05;;;;;;;1.30;0.57;;;25.90;20.70;;;;;;6784893;26;20516;-63
2024/04/18 10:38:13;;;;;;;1.10;0.40;;;24.40;22.00;;;;;;6797008;26;20745;-63
2024/04/18 10:41:27;;;;;;;1.47;0.57;;;23.40;23.00;;;;;;6760778;25;20287;-67
2024/04/18 10:44:40;;;;;;;1.17;0.67;;;22.50;24.00;;;;;;6784378;26;20294;-64
2024/04/18 10:47:50;;;;;;;0.87;0.87;;;21.80;24.60;;;;;;6781770;26;20557;-64
2024/04/18 10:51:03;;;;;;;0.97;0.80;;;21.50;25.40;;;;;;6755482;26;20790;-64
2024/04/18 10:54:20;;;;;;;0.70;0.60;;;21.10;26.00;;;;;;6754640;26;20249;-64
2024/04/18 10:57:31;;;;;;;0.90;0.60;;;20.90;27.60;;;;;;6788360;25;20236;-64
2024/04/18 11:00:45;;;;;;;0.87;0.60;;;22.40;26.50;;;;;;6776478;26;20249;-64
2024/04/18 11:03:57;;;;;;;1.37;0.90;;;22.90;26.50;;;;;;6787881;26;20275;-64
2024/04/18 11:07:30;;;;;;;1.10;0.70;;;22.20;26.40;;;;;;6863998;21;20261;-64
2024/04/18 11:10:41;;;;;;;0.50;0.40;;;22.20;26.10;;;;;;6834856;26;20307;-63
2024/04/18 11:13:49;;;;;;;0.90;0.67;;;22.60;25.60;;;;;;6848896;26;20313;-64
2024/04/18 11:17:03;;;;;;;1.67;1.20;;;23.10;25.40;;;;;;6857348;25;20250;-64
2024/04/18 11:20:15;;;;;;;1.07;0.73;;;23.70;23.90;;;;;;6826243;26;20233;-63
2024/04/18 11:23:30;;;;;;;1.30;1.20;;;23.00;24.10;;;;;;6825429;26;20235;-64
2024/04/18 11:26:53;;;;;;;1.80;0.60;;;22.00;25.30;;;;;;6836429;26;20795;-63
2024/04/18 11:30:05;;;;;;;1.93;0.50;;;21.50;25.10;;;;;;6844191;26;20281;-64
2024/04/18 11:33:14;;;;;;;0.60;0.50;;;21.60;25.20;;;;;;6841977;26;20233;-64
2024/04/18 11:36:28;;;;;;;0.50;0.40;;;21.90;24.80;;;;;;6828060;26;20282;-63
2024/04/18 11:39:50;;;;;;;0.70;0.47;;;20.60;26.70;;;;;;6827280;26;20277;-64
2024/04/18 11:42:57;;;;;;;0.87;0.60;;;20.30;24.90;;;;;;6831661;26;20657;-64
2024/04/18 11:46:17;;;;;;;1.33;0.80;;;19.80;26.20;;;;;;6825019;26;20297;-64
2024/04/18 11:49:25;;;;;;;2.43;0.90;;;20.10;26.80;;;;;;6829421;26;20238;-64
2024/04/18 11:52:35;;;;;;;1.27;0.67;;;20.30;25.50;;;;;;6837969;26;20556;-64
2024/04/18 11:55:47;;;;;;;0.70;0.70;;;20.60;25.90;;;;;;6846855;25;20289;-64
2024/04/18 11:58:57;;;;;;;1.00;0.80;;;21.40;26.00;;;;;;6832707;26;20265;-63
2024/04/18 12:02:04;;;;;;;0.63;0.50;;;22.30;24.70;;;;;;6796852;26;20234;-64
2024/04/18 12:05:16;;;;;;;3.33;0.70;;;23.50;23.20;;;;;;6827453;26;20239;-64
2024/04/18 12:08:24;;;;;;;0.90;0.60;;;24.20;22.20;;;;;;6826923;26;20246;-64
2024/04/18 12:11:35;;;;;;;1.30;0.60;;;24.40;21.00;;;;;;6852802;26;20241;-66
2024/04/18 12:14:46;;;;;;;2.50;0.50;;;24.10;21.10;;;;;;6820388;26;20253;-66
2024/04/18 12:17:54;;;;;;;1.90;0.67;;;23.30;20.60;;;;;;6816572;26;20239;-65
2024/04/18 12:21:01;;;;;;;0.70;0.60;;;22.80;21.30;;;;;;6826880;26;20246;-65
2024/04/18 12:24:07;;;;;;;0.90;0.63;;;22.30;21.50;;;;;;6835550;26;20249;-65
2024/04/18 12:27:44;;;;;;;0.83;0.37;;;21.90;22.00;;;;;;6836232;26;20271;-65
2024/04/18 12:31:00;;;;;;;1.37;0.53;;;21.10;23.00;;;;;;6850014;26;20226;-65
2024/04/18 12:34:08;;;;;;;1.23;0.63;;;21.30;23.30;;;;;;6845889;26;20239;-65
2024/04/18 12:37:29;;;;;;;1.63;0.70;;;21.50;23.20;;;;;;6848624;26;20243;-65
2024/04/18 12:40:39;;;;;;;1.50;0.63;;;21.70;23.60;;;;;;6837996;26;20532;-66
2024/04/18 12:44:00;;;;;;;1.90;1.10;;;21.90;23.90;;;;;;6847125;26;20281;-65
2024/04/18 12:47:07;;;;;;;4.13;1.90;;;22.20;22.90;;;;;;6829719;26;20802;-65
2024/04/18 12:50:21;;;;;;;2.50;1.30;;;22.50;22.50;;;;;;6847868;26;20586;-65
2024/04/18 12:53:28;;;;;;;2.80;1.00;;;22.20;22.90;;;;;;6847592;26;20288;-65
2024/04/18 12:56:47;;;;;;;0.93;0.70;;;22.20;23.40;;;;;;6849210;26;20416;-66
2024/04/18 13:00:14;;;;;;;2.07;0.90;;;22.30;22.80;;;;;;6835048;26;20246;-65
2024/04/18 13:03:23;;;;;;;0.63;0.57;;;22.30;22.80;;;;;;6844977;26;20284;-65
2024/04/18 13:06:33;;;;;;;0.97;0.87;;;22.20;22.80;;;;;;6846204;26;20242;-65
2024/04/18 13:09:43;;;;;;;0.77;0.63;;;21.70;22.90;;;;;;6828427;26;20259;-65
2024/04/18 13:12:58;;;;;;;3.40;1.13;;;21.60;23.20;;;;;;6836299;26;20640;-64
2024/04/18 13:16:23;;;;;;;0.70;0.60;;;21.40;22.40;;;;;;6841894;26;20235;-65
2024/04/18 13:19:38;;;;;;;0.70;0.50;;;21.40;23.80;;;;;;6822903;26;20247;-64
2024/04/18 13:22:46;;;;;;;0.77;0.43;;;21.30;23.30;;;;;;6837110;26;20231;-65
2024/04/18 13:25:54;;;;;;;1.10;0.50;;;21.00;23.20;;;;;;6833103;25;20322;-63
2024/04/18 13:29:01;;;;;;;1.10;0.70;;;20.80;23.90;;;;;;6832924;26;20316;-63
2024/04/18 13:32:15;;;;;;;0.50;0.40;;;20.40;23.90;;;;;;6823418;26;20530;-62
2024/04/18 13:35:26;;;;;;;0.60;0.50;;;19.90;24.50;;;;;;6807108;26;20231;-62
2024/04/18 13:38:32;;;;;;;0.70;0.50;;;19.50;24.90;;;;;;6819016;26;20247;-62
2024/04/18 13:41:45;;;;;;;0.80;0.50;;;19.20;26.10;;;;;;6829189;26;20230;-63
2024/04/18 13:44:52;;;;;;;0.70;0.60;;;18.90;26.00;;;;;;6816841;26;20553;-62
2024/04/18 13:48:03;;;;;;;0.60;0.50;;;18.80;26.00;;;;;;6811971;26;20340;-63
2024/04/18 13:51:13;;;;;;;0.90;0.70;;;18.80;25.70;;;;;;6834590;26;20354;-62
2024/04/18 13:54:27;;;;;;;0.57;0.30;;;18.70;25.40;;;;;;6839032;26;20578;-63
2024/04/18 13:57:42;;;;;;;1.23;0.47;;;18.60;25.30;;;;;;6840536;26;20272;-64
2024/04/18 14:00:49;;;;;;;0.87;0.43;;;18.70;25.70;;;;;;6828231;26;20238;-62
2024/04/18 14:04:17;;;;;;;0.50;0.50;;;19.00;25.60;;;;;;6833742;26;20588;-63
2024/04/18 14:07:28;;;;;;;1.63;0.60;;;19.30;25.70;;;;;;6841552;26;20277;-66
2024/04/18 14:10:45;;;;;;;0.80;0.70;;;19.60;25.40;;;;;;6859750;26;20246;-63
2024/04/18 14:20:49;;;;;;;0.60;0.40;;;20.10;25.10;;;;;;6860057;26;20680;-64
2024/04/18 14:23:57;;;;;;;0.60;0.50;;;20.20;25.00;;;;;;6828615;26;20234;-64
2024/04/18 14:27:10;;;;;;;0.70;0.40;;;20.30;24.80;;;;;;6838296;26;20239;-62
2024/04/18 14:30:18;;;;;;;0.87;0.60;;;20.00;24.20;;;;;;6855313;26;20229;-63
2024/04/18 14:33:34;;;;;;;1.20;0.40;;;19.40;24.50;;;;;;6833137;26;20235;-63
2024/04/18 14:36:45;;;;;;;0.97;0.60;;;18.80;24.60;;;;;;6835022;26;20323;-63
2024/04/18 14:40:02;;;;;;;1.57;0.60;;;18.50;25.40;;;;;;6830989;26;20222;-64
2024/04/18 14:43:16;;;;;;;0.70;0.70;;;18.10;25.90;;;;;;6860695;26;20534;-63
2024/04/18 14:46:24;;;;;;;0.80;0.30;;;17.70;26.40;;;;;;6857398;26;20238;-63
2024/04/18 14:49:40;;;;;;;1.53;0.90;;;17.50;27.00;;;;;;6850341;26;20235;-64
2024/04/18 14:53:02;;;;;;;0.90;0.77;;;17.40;27.10;;;;;;6831863;26;20238;-64
2024/04/18 14:56:15;;;;;;;0.60;0.50;;;17.50;27.40;;;;;;6833760;26;20273;-64
2024/04/18 14:59:22;;;;;;;0.50;0.40;;;17.30;26.80;;;;;;6860662;26;20261;-65
2024/04/18 15:02:37;;;;;;;1.03;0.40;;;17.40;27.10;;;;;;6835745;25;21045;-62
2024/04/18 15:05:57;;;;;;;0.83;0.50;;;17.40;26.80;;;;;;6859671;26;20253;-65
2024/04/18 15:09:20;;;;;;;0.50;0.50;;;17.50;26.70;;;;;;6826513;26;20250;-63
2024/04/18 15:12:32;;;;;;;1.90;0.70;;;17.40;26.80;;;;;;6853137;26;20246;-65
2024/04/18 15:15:42;;;;;;;1.13;0.50;;;17.40;27.40;;;;;;6830611;26;20988;-63
2024/04/18 15:18:59;;;;;;;0.70;0.53;;;17.00;29.00;;;;;;6823997;26;20290;-63
2024/04/18 15:22:07;;;;;;;0.50;0.40;;;17.10;29.40;;;;;;6844398;26;21029;-63
2024/04/18 15:25:24;;;;;;;0.70;0.43;;;17.40;29.20;;;;;;6837299;26;20254;-63
2024/04/18 15:28:31;;;;;;;1.13;0.70;;;17.30;28.50;;;;;;6832923;26;20724;-62
2024/04/18 15:31:46;;;;;;;0.77;0.70;;;17.10;35.10;;;;;;6836944;26;20237;-63
2024/04/18 15:34:52;;;;;;;0.60;0.53;;;17.10;33.40;;;;;;6836269;26;22398;-62
2024/04/18 15:37:58;;;;;;;0.60;0.60;;;16.80;30.50;;;;;;6848452;26;20927;-63
2024/04/18 15:41:25;;;;;;;1.20;0.67;;;16.30;28.70;;;;;;6825207;26;20276;-63
2024/04/18 15:44:33;;;;;;;1.67;0.70;;;16.00;29.70;;;;;;6836142;26;20472;-63
2024/04/18 15:47:41;;;;;;;0.80;0.70;;;15.80;29.70;;;;;;6842478;26;20875;-62
2024/04/18 15:51:04;;;;;;;1.00;0.90;;;15.70;30.00;;;;;;6830433;26;20525;-62
2024/04/18 15:54:23;;;;;;;1.50;0.90;;;15.40;29.90;;;;;;6848948;26;20544;-64
2024/04/18 15:57:45;;;;;;;1.43;0.80;;;15.30;30.10;;;;;;6858610;26;20532;-63
2024/04/18 16:01:00;;;;;;;2.70;0.70;;;15.00;31.00;;;;;;6814157;26;20544;-63
2024/04/18 16:04:08;;;;;;;4.40;0.70;;;14.90;31.90;;;;;;6841199;26;20464;-64
2024/04/18 16:07:17;;;;;;;1.10;1.00;;;14.90;33.30;;;;;;6835190;26;20472;-63
2024/04/18 16:10:30;;;;;;;0.97;0.63;;;15.00;32.70;;;;;;6846686;26;20462;-63
2024/04/18 16:13:57;;;;;;;0.80;0.80;;;15.10;31.30;;;;;;6835327;26;20815;-64
2024/04/18 16:17:12;;;;;;;1.03;0.50;;;15.00;31.20;;;;;;6831092;26;20475;-63
2024/04/18 16:20:24;;;;;;;2.63;1.13;;;14.90;32.20;;;;;;6859320;26;20523;-63
2024/04/18 16:23:33;;;;;;;0.77;0.77;;;14.80;32.50;;;;;;6859914;26;20589;-61
2024/04/18 16:26:50;;;;;;;1.10;0.70;;;14.70;33.00;;;;;;6829571;26;20540;-62
2024/04/18 16:30:14;;;;;;;1.20;0.80;;;14.70;32.40;;;;;;6838202;26;20474;-63
2024/04/18 16:33:19;;;;;;;1.03;0.93;;;14.60;32.50;;;;;;6838467;26;20487;-62
2024/04/18 16:36:28;;;;;;;0.97;0.60;;;14.50;33.30;;;;;;6836161;26;20539;-62
2024/04/18 16:39:52;;;;;;;1.70;0.73;;;14.40;33.40;;;;;;6819989;26;20596;-64
2024/04/18 16:42:59;;;;;;;1.00;0.60;;;14.40;33.40;;;;;;6831446;26;20470;-64
2024/04/18 16:46:22;;;;;;;0.73;0.70;;;14.40;33.80;;;;;;6838067;26;20474;-63
2024/04/18 16:49:40;;;;;;;1.03;0.80;;;14.40;33.30;;;;;;6854732;26;20578;-62
2024/04/18 16:52:50;;;;;;;0.93;0.70;;;14.30;32.70;;;;;;6828501;25;20807;-62
2024/04/18 16:56:06;;;;;;;1.17;1.00;;;14.20;32.70;;;;;;6833836;26;20962;-62
2024/04/18 16:59:22;;;;;;;0.70;0.67;;;14.20;32.80;;;;;;6831586;26;20576;-62